Time;durP1;ratioP1;P1;durP2;ratioP2;P2;SDS_P1;SDS_P2;PMS_P1;PMS_P2;Temp;Humidity;BMP_temperature;BMP_pressure;BME280_temperature;BME280_humidity;BME280_pressure;Samples;Min_cycle;Max_cycle;Signal;HPM_P1;HPM_P2
2023/06/07 00:00:07;;;;;;;3.80;2.15;;;;;;;;;;5065501;28;20275;-77
2023/06/07 00:02:32;;;;;;;2.92;1.92;;;;;;;;;;5064340;28;20048;-77
2023/06/07 00:04:57;;;;;;;3.05;2.03;;;;;;;;;;5064333;28;20027;-77
2023/06/07 00:07:23;;;;;;;3.07;1.67;;;;;;;;;;5062555;28;20033;-77
2023/06/07 00:09:48;;;;;;;3.13;1.93;;;;;;;;;;5063926;28;20016;-77
2023/06/07 00:12:13;;;;;;;2.85;1.92;;;;;;;;;;5045729;28;20115;-77
2023/06/07 00:14:38;;;;;;;12.63;2.23;;;;;;;;;;5063216;28;20487;-77
2023/06/07 00:17:04;;;;;;;3.67;1.70;;;;;;;;;;5059766;28;20455;-76
2023/06/07 00:19:29;;;;;;;3.17;2.00;;;;;;;;;;5061074;28;20270;-77
2023/06/07 00:21:55;;;;;;;5.30;2.35;;;;;;;;;;5065655;28;20353;-76
2023/06/07 00:24:21;;;;;;;3.15;1.92;;;;;;;;;;5064504;28;20095;-76
2023/06/07 00:26:46;;;;;;;4.10;1.73;;;;;;;;;;5066491;28;20116;-76
2023/06/07 00:29:11;;;;;;;2.45;1.80;;;;;;;;;;5066878;28;20027;-79
2023/06/07 00:31:36;;;;;;;4.30;1.90;;;;;;;;;;5067391;28;20016;-77
2023/06/07 00:34:02;;;;;;;4.40;1.90;;;;;;;;;;5066853;28;20016;-76
2023/06/07 00:36:28;;;;;;;2.88;1.80;;;;;;;;;;5049667;28;20028;-77
2023/06/07 00:38:53;;;;;;;3.30;1.83;;;;;;;;;;5067963;28;20013;-77
2023/06/07 00:41:19;;;;;;;2.70;1.92;;;;;;;;;;5067030;28;20698;-77
2023/06/07 00:43:44;;;;;;;2.58;1.73;;;;;;;;;;5067641;28;20048;-77
2023/06/07 00:46:10;;;;;;;2.50;1.70;;;;;;;;;;5072296;28;20081;-77
2023/06/07 00:48:35;;;;;;;2.83;1.73;;;;;;;;;;5071806;28;20040;-77
2023/06/07 00:51:00;;;;;;;3.38;2.10;;;;;;;;;;5068112;28;20374;-77
2023/06/07 00:53:26;;;;;;;3.67;1.93;;;;;;;;;;5065889;28;20013;-77
2023/06/07 00:55:51;;;;;;;2.47;1.77;;;;;;;;;;5066036;28;20339;-77
2023/06/07 00:58:17;;;;;;;2.87;1.87;;;;;;;;;;5067215;28;20085;-77
2023/06/07 01:00:42;;;;;;;2.42;1.70;;;;;;;;;;5050128;28;20383;-77
2023/06/07 01:03:07;;;;;;;2.67;1.97;;;;;;;;;;5067942;28;20052;-77
2023/06/07 01:05:32;;;;;;;3.43;2.10;;;;;;;;;;5066171;28;20275;-77
2023/06/07 01:07:58;;;;;;;3.13;1.85;;;;;;;;;;5066828;28;20040;-77
2023/06/07 01:10:23;;;;;;;3.87;2.03;;;;;;;;;;5065414;28;20036;-77
2023/06/07 01:12:49;;;;;;;2.93;2.03;;;;;;;;;;5049426;28;20031;-77
2023/06/07 01:15:14;;;;;;;5.55;2.03;;;;;;;;;;5067539;28;20258;-77
2023/06/07 01:17:41;;;;;;;4.15;1.77;;;;;;;;;;5065054;28;20136;-77
2023/06/07 01:20:09;;;;;;;2.95;1.83;;;;;;;;;;5064872;28;20025;-77
2023/06/07 01:22:35;;;;;;;2.72;1.77;;;;;;;;;;5073648;28;20028;-77
2023/06/07 01:25:00;;;;;;;4.22;1.80;;;;;;;;;;5065292;28;20503;-77
2023/06/07 01:27:27;;;;;;;3.25;2.00;;;;;;;;;;5067686;28;20038;-77
2023/06/07 01:29:52;;;;;;;2.10;1.60;;;;;;;;;;5066132;28;20087;-77
2023/06/07 01:32:17;;;;;;;2.35;1.60;;;;;;;;;;5065975;28;20041;-78
2023/06/07 01:34:42;;;;;;;3.40;1.97;;;;;;;;;;5064837;28;20103;-78
2023/06/07 01:37:08;;;;;;;3.17;2.00;;;;;;;;;;5067245;28;20113;-78
2023/06/07 01:39:33;;;;;;;3.63;1.85;;;;;;;;;;5048961;28;20271;-78
2023/06/07 01:41:58;;;;;;;3.03;1.63;;;;;;;;;;5049334;28;20044;-78
2023/06/07 01:44:24;;;;;;;2.97;1.83;;;;;;;;;;5065581;28;20032;-78
2023/06/07 01:46:49;;;;;;;3.28;1.63;;;;;;;;;;5071729;28;20274;-77
2023/06/07 01:49:16;;;;;;;2.78;1.98;;;;;;;;;;5056337;28;20024;-78
2023/06/07 01:51:42;;;;;;;3.40;1.98;;;;;;;;;;5054091;28;20036;-78
2023/06/07 01:54:07;;;;;;;4.13;1.90;;;;;;;;;;5065437;28;20472;-76
2023/06/07 01:56:32;;;;;;;2.85;1.70;;;;;;;;;;5065328;28;20329;-77
2023/06/07 01:59:35;;;;;;;2.00;1.53;;;;;;;;;;5067201;28;20033;-77
2023/06/07 02:02:03;;;;;;;2.45;1.73;;;;;;;;;;4968490;28;20054;-77
2023/06/07 02:04:29;;;;;;;2.35;1.73;;;;;;;;;;5051794;28;20431;-77
2023/06/07 02:06:55;;;;;;;2.70;1.70;;;;;;;;;;5065084;28;20028;-78
2023/06/07 02:09:20;;;;;;;3.38;1.90;;;;;;;;;;5065325;28;20028;-78
2023/06/07 02:11:45;;;;;;;2.90;1.70;;;;;;;;;;5065182;28;20031;-78
2023/06/07 02:14:10;;;;;;;2.72;1.67;;;;;;;;;;5063775;28;20294;-78
2023/06/07 02:16:36;;;;;;;3.63;1.70;;;;;;;;;;5064527;28;20063;-78
2023/06/07 02:19:06;;;;;;;4.90;1.90;;;;;;;;;;5062240;28;20373;-78
2023/06/07 02:21:32;;;;;;;1.98;1.65;;;;;;;;;;5060801;28;20055;-78
2023/06/07 02:23:57;;;;;;;2.40;1.67;;;;;;;;;;5078810;28;20037;-78
2023/06/07 02:26:24;;;;;;;2.73;1.73;;;;;;;;;;5066343;28;20024;-79
2023/06/07 02:28:49;;;;;;;2.95;1.77;;;;;;;;;;5066416;28;20040;-78
2023/06/07 02:31:14;;;;;;;4.10;2.10;;;;;;;;;;5048456;28;20044;-78
2023/06/07 02:33:39;;;;;;;3.28;2.17;;;;;;;;;;5065126;28;20036;-79
2023/06/07 02:36:05;;;;;;;3.07;1.80;;;;;;;;;;5066733;28;20468;-78
2023/06/07 02:38:30;;;;;;;2.37;1.67;;;;;;;;;;5066265;28;20437;-79
2023/06/07 02:40:55;;;;;;;2.60;1.90;;;;;;;;;;5069784;28;20313;-79
2023/06/07 02:43:20;;;;;;;3.13;1.70;;;;;;;;;;5074134;28;20048;-78
2023/06/07 02:45:46;;;;;;;2.72;1.80;;;;;;;;;;5068474;28;20300;-77
2023/06/07 02:48:12;;;;;;;2.23;1.60;;;;;;;;;;5066783;28;20037;-78
2023/06/07 02:50:38;;;;;;;3.80;1.90;;;;;;;;;;5069297;28;20875;-77
2023/06/07 02:53:05;;;;;;;3.13;1.90;;;;;;;;;;5068520;28;20036;-77
2023/06/07 02:55:31;;;;;;;2.58;1.85;;;;;;;;;;5070141;28;20029;-76
2023/06/07 02:57:56;;;;;;;2.93;1.63;;;;;;;;;;5065741;28;20108;-77
2023/06/07 03:00:21;;;;;;;3.13;1.73;;;;;;;;;;5072298;28;20064;-76
2023/06/07 03:02:47;;;;;;;3.70;2.10;;;;;;;;;;5049122;28;20299;-76
2023/06/07 03:05:12;;;;;;;2.80;2.00;;;;;;;;;;5072152;28;20048;-76
2023/06/07 03:07:40;;;;;;;2.67;1.90;;;;;;;;;;5068940;28;20854;-75
2023/06/07 03:10:06;;;;;;;3.38;1.67;;;;;;;;;;5062159;28;20316;-75
2023/06/07 03:12:31;;;;;;;2.97;1.98;;;;;;;;;;5062254;28;20120;-76
2023/06/07 03:14:56;;;;;;;3.65;1.83;;;;;;;;;;5064108;28;20025;-77
2023/06/07 03:17:22;;;;;;;3.77;1.70;;;;;;;;;;5067715;28;20569;-76
2023/06/07 03:19:47;;;;;;;3.22;1.90;;;;;;;;;;5061150;28;20313;-77
2023/06/07 03:22:12;;;;;;;2.83;2.03;;;;;;;;;;5061005;28;20029;-77
2023/06/07 03:24:38;;;;;;;3.42;1.80;;;;;;;;;;5046147;28;21171;-78
2023/06/07 03:27:03;;;;;;;2.17;1.43;;;;;;;;;;5048792;28;20182;-78
2023/06/07 03:29:30;;;;;;;3.65;1.90;;;;;;;;;;5055446;28;20094;-84
2023/06/07 03:31:55;;;;;;;2.78;1.80;;;;;;;;;;5066070;28;20117;-78
2023/06/07 03:34:21;;;;;;;2.20;1.60;;;;;;;;;;5071592;28;20052;-77
2023/06/07 03:36:47;;;;;;;2.67;1.63;;;;;;;;;;5063820;28;20029;-77
2023/06/07 03:39:12;;;;;;;3.25;1.90;;;;;;;;;;5063848;28;20029;-76
2023/06/07 03:41:38;;;;;;;2.57;1.70;;;;;;;;;;5035799;28;20044;-77
2023/06/07 03:44:03;;;;;;;2.63;1.90;;;;;;;;;;5064479;28;20290;-78
2023/06/07 03:46:28;;;;;;;2.75;1.67;;;;;;;;;;5058298;28;20036;-77
2023/06/07 03:48:54;;;;;;;2.87;1.80;;;;;;;;;;5064748;28;20036;-76
2023/06/07 03:51:20;;;;;;;2.97;1.98;;;;;;;;;;5061088;28;21238;-77
2023/06/07 03:53:45;;;;;;;3.50;1.70;;;;;;;;;;5063285;28;20515;-77
2023/06/07 03:56:10;;;;;;;3.50;1.83;;;;;;;;;;5045095;28;20086;-79
2023/06/07 03:58:36;;;;;;;2.77;1.43;;;;;;;;;;5047264;28;20804;-76
2023/06/07 04:01:01;;;;;;;2.63;1.50;;;;;;;;;;5063249;28;20302;-77
2023/06/07 04:03:28;;;;;;;4.35;1.70;;;;;;;;;;5066717;28;20041;-77
2023/06/07 04:05:56;;;;;;;3.08;1.90;;;;;;;;;;5066398;28;20202;-77
2023/06/07 04:08:22;;;;;;;3.67;1.98;;;;;;;;;;5065143;28;20318;-77
2023/06/07 04:10:47;;;;;;;3.80;1.40;;;;;;;;;;5066247;28;20025;-77
2023/06/07 04:13:13;;;;;;;3.30;1.70;;;;;;;;;;5067494;28;20134;-77
2023/06/07 04:15:38;;;;;;;2.83;1.60;;;;;;;;;;5068285;28;20305;-77
2023/06/07 04:18:03;;;;;;;2.87;1.63;;;;;;;;;;5069369;28;20817;-76
2023/06/07 04:20:28;;;;;;;4.00;1.88;;;;;;;;;;5064474;28;21160;-78
2023/06/07 04:22:54;;;;;;;2.43;1.40;;;;;;;;;;5069084;28;20036;-77
2023/06/07 04:25:26;;;;;;;3.17;1.73;;;;;;;;;;5067792;28;20894;-78
2023/06/07 04:27:59;;;;;;;4.35;1.92;;;;;;;;;;5067704;28;20039;-78
2023/06/07 04:30:25;;;;;;;2.90;1.83;;;;;;;;;;5067788;28;20024;-78
2023/06/07 04:32:51;;;;;;;3.03;2.00;;;;;;;;;;5067558;28;20040;-78
2023/06/07 04:35:16;;;;;;;2.75;1.80;;;;;;;;;;5067419;28;20064;-77
2023/06/07 04:37:45;;;;;;;3.40;1.83;;;;;;;;;;5066253;28;20380;-79
2023/06/07 04:40:10;;;;;;;2.83;1.80;;;;;;;;;;5067555;28;20060;-79
2023/06/07 04:42:38;;;;;;;2.60;1.63;;;;;;;;;;5069538;28;20491;-79
2023/06/07 04:45:04;;;;;;;3.10;1.60;;;;;;;;;;5064788;28;20032;-79
2023/06/07 04:47:29;;;;;;;2.20;1.52;;;;;;;;;;5067185;28;20507;-79
2023/06/07 04:49:56;;;;;;;2.33;1.30;;;;;;;;;;5067373;28;20079;-77
2023/06/07 04:52:21;;;;;;;2.50;1.70;;;;;;;;;;5066432;28;20302;-77
2023/06/07 04:54:46;;;;;;;2.60;1.53;;;;;;;;;;5072589;28;20055;-77
2023/06/07 04:57:13;;;;;;;2.50;1.45;;;;;;;;;;5070514;28;20286;-76
2023/06/07 04:59:42;;;;;;;2.97;1.85;;;;;;;;;;5063575;28;20116;-77
2023/06/07 05:02:08;;;;;;;3.15;1.65;;;;;;;;;;5063386;28;20117;-82
2023/06/07 05:04:33;;;;;;;2.83;1.85;;;;;;;;;;5054062;28;20359;-79
2023/06/07 05:06:58;;;;;;;4.47;2.03;;;;;;;;;;5062707;28;20072;-79
2023/06/07 05:09:24;;;;;;;3.10;1.70;;;;;;;;;;5061728;28;20048;-77
2023/06/07 05:11:50;;;;;;;3.47;1.77;;;;;;;;;;5055337;28;21257;-77
2023/06/07 05:14:15;;;;;;;2.65;1.50;;;;;;;;;;5051870;28;20027;-77
2023/06/07 05:16:43;;;;;;;3.45;2.00;;;;;;;;;;5056133;28;20454;-78
2023/06/07 05:19:11;;;;;;;4.15;1.67;;;;;;;;;;5059540;28;20514;-78
2023/06/07 05:21:36;;;;;;;3.20;1.85;;;;;;;;;;5078167;28;20621;-78
2023/06/07 05:24:02;;;;;;;4.90;1.90;;;;;;;;;;5064833;28;20017;-79
2023/06/07 05:26:27;;;;;;;4.72;2.50;;;;;;;;;;5067061;28;20048;-79
2023/06/07 05:28:53;;;;;;;5.88;2.10;;;;;;;;;;5064182;28;20061;-78
2023/06/07 05:31:19;;;;;;;5.03;2.03;;;;;;;;;;5067385;28;20258;-79
2023/06/07 05:33:44;;;;;;;5.32;2.08;;;;;;;;;;5062563;28;20068;-79
2023/06/07 05:36:11;;;;;;;5.38;2.58;;;;;;;;;;5064741;28;20498;-79
2023/06/07 05:38:36;;;;;;;5.60;2.47;;;;;;;;;;5050764;28;20016;-79
2023/06/07 05:41:02;;;;;;;4.85;2.10;;;;;;;;;;5066676;28;20204;-80
2023/06/07 05:43:27;;;;;;;5.68;2.28;;;;;;;;;;5062899;28;20121;-79
2023/06/07 05:45:52;;;;;;;5.43;2.50;;;;;;;;;;5060011;28;20013;-79
2023/06/07 05:48:18;;;;;;;5.18;2.42;;;;;;;;;;5061488;28;20396;-82
2023/06/07 05:50:43;;;;;;;5.38;2.40;;;;;;;;;;5051204;28;20028;-81
2023/06/07 05:53:08;;;;;;;5.33;2.30;;;;;;;;;;5070450;28;20012;-79
2023/06/07 05:55:34;;;;;;;4.10;2.40;;;;;;;;;;5062955;28;20808;-78
2023/06/07 05:58:03;;;;;;;4.88;2.20;;;;;;;;;;5067116;28;20055;-78
2023/06/07 06:00:28;;;;;;;3.93;2.27;;;;;;;;;;5067314;28;20506;-78
2023/06/07 06:02:54;;;;;;;5.85;2.47;;;;;;;;;;5072270;28;20036;-81
2023/06/07 06:05:27;;;;;;;4.38;2.00;;;;;;;;;;5073773;28;20588;-81
2023/06/07 06:07:52;;;;;;;7.20;2.10;;;;;;;;;;5071902;28;20047;-79
2023/06/07 06:10:18;;;;;;;6.65;2.30;;;;;;;;;;5070019;28;20543;-80
2023/06/07 06:12:43;;;;;;;5.10;2.17;;;;;;;;;;5069277;28;20033;-80
2023/06/07 06:15:08;;;;;;;6.33;2.30;;;;;;;;;;5069211;28;20115;-80
2023/06/07 06:17:34;;;;;;;5.75;1.95;;;;;;;;;;5070764;28;20796;-78
2023/06/07 06:19:59;;;;;;;5.13;2.50;;;;;;;;;;5066004;28;20459;-78
2023/06/07 06:22:25;;;;;;;7.13;2.33;;;;;;;;;;5067053;28;20176;-80
2023/06/07 06:24:50;;;;;;;6.30;2.20;;;;;;;;;;5069673;28;20041;-78
2023/06/07 06:27:16;;;;;;;4.43;2.40;;;;;;;;;;5074936;28;20044;-77
2023/06/07 06:29:41;;;;;;;4.00;2.58;;;;;;;;;;5067810;28;20040;-78
2023/06/07 06:32:07;;;;;;;7.65;2.75;;;;;;;;;;5067977;28;20036;-78
2023/06/07 06:34:32;;;;;;;3.75;2.05;;;;;;;;;;5065011;28;20028;-78
2023/06/07 06:36:57;;;;;;;4.65;2.40;;;;;;;;;;5059474;28;20620;-78
2023/06/07 06:39:23;;;;;;;4.78;1.70;;;;;;;;;;5062526;28;20572;-77
2023/06/07 06:41:49;;;;;;;4.20;2.20;;;;;;;;;;5063602;28;20047;-77
2023/06/07 06:44:14;;;;;;;5.83;2.20;;;;;;;;;;5060891;28;20109;-78
2023/06/07 06:46:39;;;;;;;3.53;2.10;;;;;;;;;;5071442;28;20294;-78
2023/06/07 06:49:04;;;;;;;5.50;2.10;;;;;;;;;;5067947;28;20041;-78
2023/06/07 06:51:30;;;;;;;5.17;2.40;;;;;;;;;;5062083;28;20059;-78
2023/06/07 06:53:55;;;;;;;4.97;2.35;;;;;;;;;;5060589;28;20405;-78
2023/06/07 06:56:21;;;;;;;5.00;1.77;;;;;;;;;;5068197;28;20083;-76
2023/06/07 06:58:46;;;;;;;3.28;1.75;;;;;;;;;;5070214;28;20290;-79
2023/06/07 07:01:12;;;;;;;8.00;2.60;;;;;;;;;;5061089;28;20100;-79
2023/06/07 07:03:38;;;;;;;5.18;2.17;;;;;;;;;;5066285;28;20041;-79
2023/06/07 07:06:03;;;;;;;5.15;2.20;;;;;;;;;;5071891;28;20084;-79
2023/06/07 07:08:28;;;;;;;6.37;2.30;;;;;;;;;;5071809;28;20059;-79
2023/06/07 07:10:53;;;;;;;5.10;2.50;;;;;;;;;;5052044;28;20290;-78
2023/06/07 07:13:19;;;;;;;5.67;2.67;;;;;;;;;;5063879;28;20124;-79
2023/06/07 07:15:44;;;;;;;5.93;2.20;;;;;;;;;;5047480;28;20302;-78
2023/06/07 07:18:10;;;;;;;4.53;2.42;;;;;;;;;;5063987;28;20041;-78
2023/06/07 07:20:35;;;;;;;3.65;2.13;;;;;;;;;;5068089;28;20044;-78
2023/06/07 07:23:02;;;;;;;5.50;2.40;;;;;;;;;;5054786;28;20053;-78
2023/06/07 07:25:28;;;;;;;4.88;2.15;;;;;;;;;;5068877;28;20117;-77
2023/06/07 07:27:53;;;;;;;4.87;2.20;;;;;;;;;;5049304;28;20036;-77
2023/06/07 07:30:18;;;;;;;5.78;2.25;;;;;;;;;;5057014;28;20310;-77
2023/06/07 07:32:44;;;;;;;4.95;2.40;;;;;;;;;;5071221;28;20087;-78
2023/06/07 07:35:09;;;;;;;3.77;1.90;;;;;;;;;;5078022;28;20086;-78
2023/06/07 07:37:35;;;;;;;5.05;2.30;;;;;;;;;;5082863;28;20287;-77
2023/06/07 07:40:00;;;;;;;5.40;2.55;;;;;;;;;;5076470;28;20041;-77
2023/06/07 07:42:26;;;;;;;6.25;2.38;;;;;;;;;;5079271;28;20068;-79
2023/06/07 07:44:51;;;;;;;4.60;2.47;;;;;;;;;;5078309;28;20021;-77
2023/06/07 07:47:17;;;;;;;7.80;2.88;;;;;;;;;;5073963;28;20507;-78
2023/06/07 07:49:42;;;;;;;5.27;2.40;;;;;;;;;;5076450;28;20099;-78
2023/06/07 07:52:07;;;;;;;4.93;2.47;;;;;;;;;;5077100;28;20291;-78
2023/06/07 07:54:32;;;;;;;4.88;2.28;;;;;;;;;;5075728;28;20279;-79
2023/06/07 07:56:58;;;;;;;4.50;2.10;;;;;;;;;;5067795;28;20032;-78
2023/06/07 07:59:23;;;;;;;3.58;2.13;;;;;;;;;;5080676;28;20063;-79
2023/06/07 08:01:52;;;;;;;5.13;2.10;;;;;;;;;;5081791;28;20028;-78
2023/06/07 08:04:17;;;;;;;5.63;2.63;;;;;;;;;;5081457;28;20036;-78
2023/06/07 08:06:43;;;;;;;4.68;2.00;;;;;;;;;;5077962;28;20039;-79
2023/06/07 08:09:09;;;;;;;10.20;2.53;;;;;;;;;;5075695;28;20037;-78
2023/06/07 08:11:35;;;;;;;4.18;2.28;;;;;;;;;;5076522;28;20040;-79
2023/06/07 08:14:03;;;;;;;6.50;2.80;;;;;;;;;;5080056;28;20029;-78
2023/06/07 08:16:30;;;;;;;4.63;2.17;;;;;;;;;;5072892;28;20043;-79
2023/06/07 08:18:55;;;;;;;5.88;2.22;;;;;;;;;;5066939;28;20024;-79
2023/06/07 08:21:21;;;;;;;4.10;2.20;;;;;;;;;;5063225;28;20043;-80
2023/06/07 08:23:47;;;;;;;3.95;2.13;;;;;;;;;;5056023;28;20040;-79
2023/06/07 08:26:12;;;;;;;5.57;2.25;;;;;;;;;;5077293;28;20498;-79
2023/06/07 08:28:37;;;;;;;6.13;2.50;;;;;;;;;;5072261;28;20515;-79
2023/06/07 08:31:03;;;;;;;5.23;2.57;;;;;;;;;;5076017;28;20298;-79
2023/06/07 08:33:29;;;;;;;3.55;1.90;;;;;;;;;;5072254;28;20376;-79
2023/06/07 08:35:54;;;;;;;4.35;2.22;;;;;;;;;;5074051;28;20405;-79
2023/06/07 08:38:19;;;;;;;6.47;2.30;;;;;;;;;;5073569;28;20135;-79
2023/06/07 08:40:45;;;;;;;6.80;2.65;;;;;;;;;;5071908;28;20048;-79
2023/06/07 08:43:10;;;;;;;4.07;1.88;;;;;;;;;;5072097;28;20041;-80
2023/06/07 08:45:36;;;;;;;4.03;2.13;;;;;;;;;;5070502;28;20036;-79
2023/06/07 08:48:05;;;;;;;6.88;2.30;;;;;;;;;;5073201;28;20032;-79
2023/06/07 08:50:30;;;;;;;3.70;2.15;;;;;;;;;;5073904;28;20028;-79
2023/06/07 08:52:56;;;;;;;6.50;2.50;;;;;;;;;;5075291;28;20489;-79
2023/06/07 08:55:21;;;;;;;4.65;2.53;;;;;;;;;;5072544;28;20524;-79
2023/06/07 08:57:51;;;;;;;4.25;1.95;;;;;;;;;;5072501;28;20032;-79
2023/06/07 09:00:19;;;;;;;4.82;2.50;;;;;;;;;;5072770;28;20099;-78
2023/06/07 09:02:45;;;;;;;4.68;2.33;;;;;;;;;;5059720;28;20053;-79
2023/06/07 09:05:11;;;;;;;4.97;2.47;;;;;;;;;;5071888;28;20529;-79
2023/06/07 09:07:36;;;;;;;5.32;2.45;;;;;;;;;;5076911;28;20158;-79
2023/06/07 09:10:05;;;;;;;4.78;2.63;;;;;;;;;;5073498;28;20029;-78
2023/06/07 09:12:30;;;;;;;3.40;2.40;;;;;;;;;;5081244;28;20028;-78
2023/06/07 09:14:56;;;;;;;4.37;2.33;;;;;;;;;;5073192;28;20029;-78
2023/06/07 09:17:22;;;;;;;5.40;2.30;;;;;;;;;;5076154;28;20295;-77
2023/06/07 09:19:49;;;;;;;3.00;2.03;;;;;;;;;;5071960;28;20037;-78
2023/06/07 09:22:14;;;;;;;4.75;2.10;;;;;;;;;;5077386;28;20413;-78
2023/06/07 09:24:40;;;;;;;4.72;2.20;;;;;;;;;;5069337;28;20037;-79
2023/06/07 09:27:06;;;;;;;4.68;2.08;;;;;;;;;;5073528;28;20036;-80
2023/06/07 09:29:38;;;;;;;4.43;2.40;;;;;;;;;;5071012;28;20044;-80
2023/06/07 09:32:16;;;;;;;3.25;2.10;;;;;;;;;;5070095;28;20036;-80
2023/06/07 09:34:42;;;;;;;3.60;2.00;;;;;;;;;;5053524;28;20109;-81
2023/06/07 09:37:07;;;;;;;4.33;2.20;;;;;;;;;;5063620;28;20037;-79
2023/06/07 09:39:33;;;;;;;6.33;2.00;;;;;;;;;;5080918;28;20293;-80
2023/06/07 09:41:58;;;;;;;4.32;2.30;;;;;;;;;;5069822;28;20298;-76
2023/06/07 09:44:23;;;;;;;3.87;2.30;;;;;;;;;;5067415;28;20033;-77
2023/06/07 09:46:49;;;;;;;4.18;2.40;;;;;;;;;;5071492;28;20311;-79
2023/06/07 09:49:16;;;;;;;3.28;2.10;;;;;;;;;;5071815;28;20067;-81
2023/06/07 09:51:41;;;;;;;3.88;2.28;;;;;;;;;;5057174;28;20025;-81
2023/06/07 09:54:08;;;;;;;5.50;2.13;;;;;;;;;;5063052;28;20041;-79
2023/06/07 09:56:33;;;;;;;4.32;2.35;;;;;;;;;;5067761;28;20048;-86
2023/06/07 09:59:12;;;;;;;5.65;2.55;;;;;;;;;;5069618;28;20195;-82
2023/06/07 10:01:38;;;;;;;4.43;2.17;;;;;;;;;;5068859;28;20033;-81
2023/06/07 10:04:06;;;;;;;4.18;2.05;;;;;;;;;;5070168;28;20091;-81
2023/06/07 10:06:32;;;;;;;4.45;2.30;;;;;;;;;;5059729;28;20044;-83
2023/06/07 10:09:02;;;;;;;5.55;2.40;;;;;;;;;;5068450;28;20028;-81
2023/06/07 10:11:28;;;;;;;3.55;2.08;;;;;;;;;;5067380;28;20050;-80
2023/06/07 10:13:53;;;;;;;4.40;2.60;;;;;;;;;;5073162;28;20466;-81
2023/06/07 10:16:19;;;;;;;3.25;2.10;;;;;;;;;;5075095;28;20024;-80
2023/06/07 10:18:44;;;;;;;5.80;2.35;;;;;;;;;;5072066;28;20040;-80
2023/06/07 10:21:15;;;;;;;5.27;2.50;;;;;;;;;;5069304;28;20064;-83
2023/06/07 10:23:40;;;;;;;3.28;2.13;;;;;;;;;;5072414;28;20044;-82
2023/06/07 10:26:28;;;;;;;3.80;2.30;;;;;;;;;;5072827;28;20079;-82
2023/06/07 10:28:56;;;;;;;3.42;2.20;;;;;;;;;;5064656;28;20514;-82
2023/06/07 10:31:24;;;;;;;4.85;2.40;;;;;;;;;;5059532;28;20029;-81
2023/06/07 10:33:50;;;;;;;4.38;2.55;;;;;;;;;;5070727;28;20360;-83
2023/06/07 10:36:16;;;;;;;4.38;2.83;;;;;;;;;;5069808;28;20055;-81
2023/06/07 10:38:41;;;;;;;3.58;2.20;;;;;;;;;;5070460;28;20596;-78
2023/06/07 10:41:06;;;;;;;5.30;2.43;;;;;;;;;;5071619;28;20514;-79
2023/06/07 10:43:32;;;;;;;6.33;2.60;;;;;;;;;;5067918;28;20075;-78
2023/06/07 10:46:16;;;;;;;4.70;2.60;;;;;;;;;;5069790;28;20029;-79
2023/06/07 10:48:45;;;;;;;4.90;2.53;;;;;;;;;;5069340;28;20602;-78
2023/06/07 10:51:10;;;;;;;5.10;2.47;;;;;;;;;;5064500;28;20055;-79
2023/06/07 10:54:05;;;;;;;5.17;2.30;;;;;;;;;;5067642;28;20037;-79
2023/06/07 10:56:32;;;;;;;3.97;2.25;;;;;;;;;;5052388;28;20287;-79
2023/06/07 10:58:59;;;;;;;5.45;2.55;;;;;;;;;;5045446;28;20043;-78
2023/06/07 11:01:24;;;;;;;3.40;2.50;;;;;;;;;;5058088;28;20047;-78
2023/06/07 11:03:50;;;;;;;6.28;2.80;;;;;;;;;;5058293;28;20036;-79
2023/06/07 11:06:15;;;;;;;3.65;2.45;;;;;;;;;;5054312;28;20135;-78
2023/06/07 11:08:40;;;;;;;4.97;2.70;;;;;;;;;;5055843;28;20473;-79
2023/06/07 11:11:26;;;;;;;4.57;2.58;;;;;;;;;;5053876;28;20521;-79
2023/06/07 11:13:54;;;;;;;4.18;2.20;;;;;;;;;;5051540;28;20181;-79
2023/06/07 11:16:22;;;;;;;5.20;2.42;;;;;;;;;;5053762;28;20036;-79
2023/06/07 11:19:00;;;;;;;4.93;2.25;;;;;;;;;;5052384;28;20083;-79
2023/06/07 11:21:28;;;;;;;5.57;2.25;;;;;;;;;;5055608;28;20068;-79
2023/06/07 11:24:09;;;;;;;3.42;2.15;;;;;;;;;;5057320;28;20041;-78
2023/06/07 11:26:34;;;;;;;3.65;2.35;;;;;;;;;;5060061;28;20045;-79
2023/06/07 11:29:00;;;;;;;5.00;2.53;;;;;;;;;;5058327;28;20021;-79
2023/06/07 11:31:25;;;;;;;3.28;2.22;;;;;;;;;;5048308;28;20112;-78
2023/06/07 11:33:51;;;;;;;5.18;2.60;;;;;;;;;;5057497;28;20017;-79
2023/06/07 11:36:16;;;;;;;5.10;2.72;;;;;;;;;;5052679;28;20456;-79
2023/06/07 11:38:42;;;;;;;4.93;2.50;;;;;;;;;;5059548;28;20078;-80
2023/06/07 11:41:07;;;;;;;5.22;2.15;;;;;;;;;;5054713;28;20047;-78
2023/06/07 11:43:32;;;;;;;4.77;2.00;;;;;;;;;;5055842;28;20029;-79
2023/06/07 11:45:58;;;;;;;3.50;2.40;;;;;;;;;;5053401;28;20279;-79
2023/06/07 11:48:27;;;;;;;4.80;2.33;;;;;;;;;;5054801;28;20021;-79
2023/06/07 11:50:52;;;;;;;4.63;2.33;;;;;;;;;;5060845;28;20017;-78
2023/06/07 11:53:18;;;;;;;3.17;2.10;;;;;;;;;;5069805;28;20031;-78
2023/06/07 11:55:43;;;;;;;3.97;2.50;;;;;;;;;;5074717;28;20021;-78
2023/06/07 11:58:08;;;;;;;5.70;2.38;;;;;;;;;;5063999;28;20020;-78
2023/06/07 12:00:34;;;;;;;5.30;2.60;;;;;;;;;;5047007;28;20013;-78
2023/06/07 12:03:00;;;;;;;2.40;1.90;;;;;;;;;;5062084;28;20057;-78
2023/06/07 12:05:31;;;;;;;3.95;2.30;;;;;;;;;;5064261;28;20087;-78
2023/06/07 12:08:13;;;;;;;5.55;2.42;;;;;;;;;;5065469;28;20511;-78
2023/06/07 12:10:38;;;;;;;4.05;2.20;;;;;;;;;;5063979;28;20499;-79
2023/06/07 12:13:10;;;;;;;5.47;2.17;;;;;;;;;;5063176;28;20040;-76
2023/06/07 12:15:42;;;;;;;4.65;2.50;;;;;;;;;;5062795;28;20287;-80
2023/06/07 12:18:11;;;;;;;3.58;2.20;;;;;;;;;;5074614;28;20111;-77
2023/06/07 12:20:36;;;;;;;6.25;2.35;;;;;;;;;;5072043;28;20033;-78
2023/06/07 12:23:02;;;;;;;4.23;2.40;;;;;;;;;;5082028;28;20037;-78
2023/06/07 12:25:28;;;;;;;5.03;2.35;;;;;;;;;;5075751;28;20043;-82
2023/06/07 12:27:53;;;;;;;5.33;2.40;;;;;;;;;;5071494;28;20059;-81
2023/06/07 12:30:19;;;;;;;3.53;2.57;;;;;;;;;;5092075;28;20705;-82
2023/06/07 12:32:44;;;;;;;3.97;2.33;;;;;;;;;;5080375;28;20024;-82
2023/06/07 12:35:10;;;;;;;4.00;2.57;;;;;;;;;;5079996;28;20182;-81
2023/06/07 12:37:35;;;;;;;4.10;2.60;;;;;;;;;;5074521;28;20311;-82
2023/06/07 12:40:02;;;;;;;4.23;2.80;;;;;;;;;;5093639;28;20025;-81
2023/06/07 12:42:28;;;;;;;5.10;2.78;;;;;;;;;;5077425;28;20040;-82
2023/06/07 12:44:54;;;;;;;4.23;2.60;;;;;;;;;;5081690;28;20190;-82
2023/06/07 12:47:20;;;;;;;6.35;2.42;;;;;;;;;;5071229;28;20028;-80
2023/06/07 12:49:45;;;;;;;5.18;2.63;;;;;;;;;;5076110;28;20036;-80
2023/06/07 12:52:11;;;;;;;4.75;2.33;;;;;;;;;;5083322;28;20029;-80
2023/06/07 12:54:36;;;;;;;3.42;2.08;;;;;;;;;;5082019;28;20039;-81
2023/06/07 12:57:01;;;;;;;3.83;2.30;;;;;;;;;;5080722;28;20040;-79
2023/06/07 12:59:27;;;;;;;4.38;2.60;;;;;;;;;;5080772;28;20511;-81
2023/06/07 13:01:52;;;;;;;5.10;2.93;;;;;;;;;;5078609;28;20039;-81
2023/06/07 13:04:17;;;;;;;5.90;2.60;;;;;;;;;;5078688;28;20290;-80
2023/06/07 13:06:43;;;;;;;3.47;1.90;;;;;;;;;;5080758;28;20108;-81
2023/06/07 13:09:08;;;;;;;4.13;2.58;;;;;;;;;;5093827;28;20048;-81
2023/06/07 13:11:36;;;;;;;5.07;2.63;;;;;;;;;;5076453;28;20036;-83
2023/06/07 13:14:02;;;;;;;4.15;2.50;;;;;;;;;;5071123;28;20062;-81
2023/06/07 13:16:27;;;;;;;4.03;2.45;;;;;;;;;;5082598;28;20036;-81
2023/06/07 13:18:52;;;;;;;4.20;2.30;;;;;;;;;;5081503;28;20039;-81
2023/06/07 13:21:18;;;;;;;3.55;2.70;;;;;;;;;;5082774;28;20044;-82
2023/06/07 13:23:43;;;;;;;6.50;2.80;;;;;;;;;;5090706;28;20036;-81
2023/06/07 13:26:09;;;;;;;3.38;2.30;;;;;;;;;;5081501;28;20036;-83
2023/06/07 13:28:34;;;;;;;6.97;2.63;;;;;;;;;;5084990;28;20045;-82
2023/06/07 13:30:59;;;;;;;4.60;2.80;;;;;;;;;;5077440;28;20081;-84
2023/06/07 13:33:24;;;;;;;4.00;2.70;;;;;;;;;;5077216;28;20313;-83
2023/06/07 13:35:50;;;;;;;3.53;2.28;;;;;;;;;;5076388;28;20033;-82
2023/06/07 13:38:15;;;;;;;5.55;2.72;;;;;;;;;;5074289;28;20115;-81
2023/06/07 13:40:40;;;;;;;6.40;2.30;;;;;;;;;;5075146;28;20538;-82
2023/06/07 13:43:06;;;;;;;4.13;2.53;;;;;;;;;;5074797;28;20313;-80
2023/06/07 13:45:31;;;;;;;3.85;2.50;;;;;;;;;;5071238;28;20028;-80
2023/06/07 13:47:57;;;;;;;4.10;2.50;;;;;;;;;;5057331;28;20059;-81
2023/06/07 13:50:22;;;;;;;4.63;2.33;;;;;;;;;;5075316;28;20033;-81
2023/06/07 13:52:47;;;;;;;4.17;2.63;;;;;;;;;;5056105;28;20031;-81
2023/06/07 13:55:12;;;;;;;3.00;2.23;;;;;;;;;;5076476;28;20063;-81
2023/06/07 13:57:37;;;;;;;4.07;2.30;;;;;;;;;;5078746;28;20043;-81
2023/06/07 14:00:03;;;;;;;6.20;2.60;;;;;;;;;;5073228;28;20378;-81
2023/06/07 14:02:28;;;;;;;4.13;2.63;;;;;;;;;;5076200;28;20306;-81
2023/06/07 14:04:54;;;;;;;3.50;2.22;;;;;;;;;;5064372;28;20055;-89
2023/06/07 14:07:19;;;;;;;4.30;2.33;;;;;;;;;;5077143;28;20104;-82
2023/06/07 14:09:45;;;;;;;6.40;2.63;;;;;;;;;;5075125;28;20025;-80
2023/06/07 14:12:10;;;;;;;4.07;2.65;;;;;;;;;;5088228;28;20102;-81
2023/06/07 14:14:36;;;;;;;5.30;3.00;;;;;;;;;;5073930;28;20044;-80
2023/06/07 14:17:01;;;;;;;5.43;2.40;;;;;;;;;;5070158;28;20124;-81
2023/06/07 14:19:26;;;;;;;5.70;3.00;;;;;;;;;;5072074;28;20325;-80
2023/06/07 14:21:51;;;;;;;3.30;2.47;;;;;;;;;;5069681;28;20293;-81
2023/06/07 14:24:17;;;;;;;4.63;2.40;;;;;;;;;;5067454;28;20299;-82
2023/06/07 14:26:42;;;;;;;3.80;2.50;;;;;;;;;;5069451;28;20566;-82
2023/06/07 14:29:07;;;;;;;3.73;2.60;;;;;;;;;;5073629;28;20074;-91
2023/06/07 14:31:32;;;;;;;5.87;2.83;;;;;;;;;;5078836;28;20020;-86
2023/06/07 14:33:58;;;;;;;5.47;2.47;;;;;;;;;;5075086;28;20435;-90
2023/06/07 14:36:23;;;;;;;6.13;2.63;;;;;;;;;;5073803;28;20040;-94